Time;durP1;ratioP1;P1;durP2;ratioP2;P2;SDS_P1;SDS_P2;PMS_P1;PMS_P2;Temp;Humidity;BMP_temperature;BMP_pressure;BME280_temperature;BME280_humidity;BME280_pressure;Samples;Min_cycle;Max_cycle;Signal;HPM_P1;HPM_P2
2024/02/29 06:00:46;;;;;;;56.50;25.45;;;1.40;98.60;;;;;;4733865;23;19934;-74
2024/02/29 06:02:48;;;;;;;64.25;24.98;;;1.50;98.70;;;;;;4074068;29;20446;-75
2024/02/29 06:04:50;;;;;;;51.72;23.02;;;1.50;98.40;;;;;;4086584;29;20044;-77
2024/02/29 06:06:52;;;;;;;51.10;23.80;;;1.60;98.40;;;;;;4083746;29;20040;-78
2024/02/29 06:08:54;;;;;;;43.72;22.60;;;1.70;98.00;;;;;;4071022;29;20051;-75
2024/02/29 06:10:55;;;;;;;39.22;21.27;;;1.70;98.00;;;;;;4071112;29;20059;-75
2024/02/29 06:12:58;;;;;;;45.67;23.17;;;1.70;97.60;;;;;;4070832;29;20044;-77
2024/02/29 06:15:00;;;;;;;49.38;23.92;;;1.80;97.50;;;;;;4071108;29;20055;-77
2024/02/29 06:17:03;;;;;;;43.10;23.25;;;1.80;97.20;;;;;;4070903;29;20080;-76
2024/02/29 06:19:04;;;;;;;42.95;22.92;;;1.90;97.20;;;;;;4070833;29;20442;-74
2024/02/29 06:21:07;;;;;;;41.78;22.08;;;1.90;97.10;;;;;;4070761;29;20044;-76
2024/02/29 06:23:09;;;;;;;42.22;22.38;;;1.90;96.90;;;;;;4070846;29;20476;-77
2024/02/29 06:25:11;;;;;;;37.47;20.63;;;2.00;96.80;;;;;;4070828;29;20086;-75
2024/02/29 06:27:13;;;;;;;45.95;21.95;;;2.00;96.60;;;;;;4070710;29;20103;-76
2024/02/29 06:29:16;;;;;;;38.42;21.02;;;1.90;96.60;;;;;;4070846;29;20082;-76
2024/02/29 06:31:18;;;;;;;42.38;22.70;;;2.00;96.60;;;;;;4070708;29;20505;-76
2024/02/29 06:33:20;;;;;;;57.75;29.27;;;2.00;96.30;;;;;;4070427;29;20044;-77
2024/02/29 06:35:22;;;;;;;41.10;21.92;;;2.00;96.50;;;;;;4070701;29;20044;-77
2024/02/29 06:37:23;;;;;;;40.15;21.27;;;2.00;96.00;;;;;;4075260;29;20474;-76
2024/02/29 06:39:25;;;;;;;42.67;23.88;;;1.90;96.40;;;;;;4070580;29;20052;-75
2024/02/29 06:41:26;;;;;;;43.17;22.10;;;1.90;96.30;;;;;;4070592;29;20104;-76
2024/02/29 06:43:28;;;;;;;39.33;21.20;;;2.00;96.40;;;;;;4070563;29;20056;-76
2024/02/29 06:45:30;;;;;;;38.67;20.15;;;2.00;96.20;;;;;;4070634;29;20055;-75
2024/02/29 06:47:33;;;;;;;37.70;19.95;;;2.00;95.90;;;;;;4070273;29;20048;-77
2024/02/29 06:49:36;;;;;;;40.53;21.63;;;2.10;96.00;;;;;;4081344;29;20047;-74
2024/02/29 06:51:37;;;;;;;47.83;26.15;;;2.10;95.90;;;;;;4084596;29;20496;-76
2024/02/29 06:53:39;;;;;;;46.13;24.65;;;2.10;95.50;;;;;;4084988;29;20146;-78
2024/02/29 06:55:41;;;;;;;41.33;21.65;;;2.10;95.80;;;;;;4085959;29;20094;-75
2024/02/29 06:57:42;;;;;;;38.10;21.60;;;2.00;95.70;;;;;;4089801;29;20048;-77
2024/02/29 06:59:44;;;;;;;40.08;20.55;;;2.00;95.70;;;;;;4085008;29;20481;-76
2024/02/29 07:01:46;;;;;;;38.13;21.48;;;2.00;95.50;;;;;;4084197;29;20043;-77
2024/02/29 07:03:48;;;;;;;53.45;21.75;;;2.00;95.80;;;;;;4085527;29;20099;-76
2024/02/29 07:05:51;;;;;;;39.20;20.48;;;1.90;95.30;;;;;;4085648;29;20048;-77
2024/02/29 07:07:52;;;;;;;37.25;21.08;;;1.90;95.90;;;;;;4085506;29;20473;-77
2024/02/29 07:09:56;;;;;;;34.85;20.00;;;2.00;96.10;;;;;;4084171;29;20052;-77
2024/02/29 07:11:58;;;;;;;34.08;19.27;;;2.00;95.90;;;;;;4072325;29;20080;-77
2024/02/29 07:14:00;;;;;;;32.85;18.75;;;2.10;95.90;;;;;;4085297;29;20477;-76
2024/02/29 07:16:02;;;;;;;32.00;19.40;;;2.20;95.70;;;;;;4084222;29;20051;-76
2024/02/29 07:18:06;;;;;;;33.15;19.63;;;2.20;95.80;;;;;;4056940;29;20048;-77
2024/02/29 07:20:13;;;;;;;36.15;19.02;;;2.20;95.30;;;;;;4082481;29;20135;-75
2024/02/29 07:22:16;;;;;;;32.38;18.92;;;2.10;95.50;;;;;;4081435;29;20153;-76
2024/02/29 07:24:17;;;;;;;30.00;18.08;;;2.10;95.60;;;;;;4069777;29;20052;-77
2024/02/29 07:26:20;;;;;;;29.90;18.65;;;2.10;95.60;;;;;;4069880;29;20144;-75
2024/02/29 07:28:21;;;;;;;29.48;18.13;;;2.20;95.40;;;;;;4087184;29;20052;-76
2024/02/29 07:30:23;;;;;;;30.02;18.77;;;2.20;95.50;;;;;;4095295;29;20051;-76
2024/02/29 07:32:25;;;;;;;27.10;17.63;;;2.30;95.30;;;;;;4090736;29;20052;-77
2024/02/29 07:34:27;;;;;;;28.15;17.27;;;2.30;95.20;;;;;;4081490;29;20056;-77
2024/02/29 07:36:29;;;;;;;29.88;17.80;;;2.40;94.90;;;;;;4082023;29;20083;-77
2024/02/29 07:38:32;;;;;;;27.75;17.02;;;2.40;95.00;;;;;;4095909;29;20047;-77
2024/02/29 07:40:34;;;;;;;27.42;17.05;;;2.40;94.80;;;;;;4096653;29;20043;-76
2024/02/29 07:42:38;;;;;;;27.98;17.80;;;2.40;95.00;;;;;;4083469;29;20110;-77
2024/02/29 07:44:40;;;;;;;29.67;18.17;;;2.30;95.10;;;;;;4069529;29;20139;-75
2024/02/29 07:46:42;;;;;;;30.52;18.40;;;2.30;95.50;;;;;;4069440;29;20080;-76
2024/02/29 07:48:44;;;;;;;33.08;19.13;;;2.30;95.40;;;;;;4069463;29;20131;-76
2024/02/29 07:50:46;;;;;;;34.20;19.77;;;2.30;95.60;;;;;;4069521;29;20051;-75
2024/02/29 07:52:48;;;;;;;30.65;19.27;;;2.30;95.70;;;;;;4072177;29;20111;-74
2024/02/29 07:54:51;;;;;;;32.03;19.35;;;2.10;95.90;;;;;;4084632;29;20118;-78
2024/02/29 07:56:53;;;;;;;76.05;21.48;;;2.10;96.30;;;;;;4060780;29;20052;-76
2024/02/29 07:58:55;;;;;;;54.10;21.75;;;2.10;96.10;;;;;;4069472;29;20060;-77
2024/02/29 08:00:57;;;;;;;37.33;20.20;;;2.10;96.20;;;;;;4069230;29;20107;-76
2024/02/29 08:02:59;;;;;;;48.10;27.00;;;2.20;96.50;;;;;;4073373;29;20118;-77
2024/02/29 08:04:59;;;;;;;67.03;20.63;;;2.40;96.50;;;;;;4084973;29;20047;-76
2024/02/29 08:07:02;;;;;;;53.53;21.23;;;2.50;96.20;;;;;;4084824;29;20397;-77
2024/02/29 08:09:05;;;;;;;38.92;19.50;;;2.40;96.20;;;;;;4074011;29;20049;-76
2024/02/29 08:11:08;;;;;;;66.15;22.02;;;2.40;96.50;;;;;;4069267;29;20048;-75
2024/02/29 08:13:09;;;;;;;38.85;20.90;;;2.40;96.30;;;;;;4074429;29;20473;-75
2024/02/29 08:15:11;;;;;;;76.95;23.45;;;2.40;97.00;;;;;;4084513;29;20052;-75
2024/02/29 08:17:13;;;;;;;96.38;23.30;;;2.30;97.00;;;;;;4083441;29;20044;-75
2024/02/29 08:19:16;;;;;;;87.88;23.58;;;2.20;97.10;;;;;;4071185;29;20052;-77
2024/02/29 08:21:17;;;;;;;88.93;25.15;;;2.20;97.40;;;;;;4069181;29;20052;-78
2024/02/29 08:23:19;;;;;;;50.92;23.35;;;2.10;97.80;;;;;;4071334;29;20805;-77
2024/02/29 08:25:22;;;;;;;60.40;24.02;;;2.20;98.00;;;;;;4069096;29;20056;-75
2024/02/29 08:27:25;;;;;;;38.83;21.70;;;2.20;98.10;;;;;;4069195;29;20462;-75
2024/02/29 08:29:27;;;;;;;45.80;23.55;;;2.30;98.20;;;;;;4069141;29;20048;-75
2024/02/29 08:31:31;;;;;;;48.33;22.73;;;2.50;97.90;;;;;;4069098;29;20091;-77
2024/02/29 08:33:31;;;;;;;49.08;21.83;;;2.70;97.50;;;;;;4075759;29;20095;-77
2024/02/29 08:35:33;;;;;;;96.85;22.48;;;2.80;97.10;;;;;;4084154;29;20063;-76
2024/02/29 08:37:34;;;;;;;60.13;21.05;;;2.80;96.70;;;;;;4082920;29;20478;-77
2024/02/29 08:39:38;;;;;;;47.45;21.92;;;2.80;97.00;;;;;;4068774;29;20497;-77
2024/02/29 08:41:40;;;;;;;42.97;22.20;;;2.90;96.90;;;;;;4069146;29;20108;-76
2024/02/29 08:43:43;;;;;;;45.00;20.65;;;3.00;96.90;;;;;;4069715;29;20447;-77
2024/02/29 08:45:45;;;;;;;45.35;21.23;;;3.10;96.90;;;;;;4068751;29;20048;-75
2024/02/29 08:47:47;;;;;;;60.75;22.67;;;3.20;96.50;;;;;;4068705;29;20047;-77
2024/02/29 08:49:49;;;;;;;66.18;22.25;;;3.20;96.50;;;;;;4068662;29;20055;-77
2024/02/29 08:51:51;;;;;;;74.03;23.23;;;3.20;96.30;;;;;;4076265;29;20473;-77
2024/02/29 08:53:52;;;;;;;65.20;24.42;;;2.90;97.00;;;;;;4074838;29;20048;-76
2024/02/29 08:55:53;;;;;;;44.75;23.20;;;3.00;97.20;;;;;;4068807;29;20123;-76
2024/02/29 08:57:55;;;;;;;52.28;22.38;;;3.10;97.20;;;;;;4078293;29;20044;-74
2024/02/29 08:59:57;;;;;;;43.78;21.95;;;3.10;97.20;;;;;;4084014;29;20047;-76
2024/02/29 09:02:00;;;;;;;40.58;22.27;;;3.30;97.00;;;;;;4084350;29;20048;-76
2024/02/29 09:04:02;;;;;;;44.40;22.83;;;3.40;97.00;;;;;;4082739;29;20444;-77
2024/02/29 09:06:03;;;;;;;42.67;22.75;;;3.30;96.90;;;;;;4084081;29;20079;-77
2024/02/29 09:08:05;;;;;;;44.80;23.27;;;3.40;97.00;;;;;;4084132;29;20048;-77
2024/02/29 09:10:09;;;;;;;40.47;22.10;;;3.50;96.80;;;;;;4082601;29;20382;-78
2024/02/29 09:12:12;;;;;;;44.28;23.17;;;3.50;97.30;;;;;;4068632;29;20413;-76
2024/02/29 09:14:13;;;;;;;42.95;23.05;;;3.70;97.00;;;;;;4069590;29;20055;-76
2024/02/29 09:16:16;;;;;;;44.92;23.65;;;3.60;96.70;;;;;;4069549;29;20482;-76
2024/02/29 09:18:18;;;;;;;40.90;22.52;;;3.60;97.10;;;;;;4071643;29;20048;-77
2024/02/29 09:20:20;;;;;;;40.83;22.55;;;3.80;97.10;;;;;;4079103;29;20098;-76
2024/02/29 09:22:20;;;;;;;47.10;24.85;;;3.90;96.80;;;;;;4087125;29;20390;-76
2024/02/29 09:24:22;;;;;;;47.72;23.83;;;4.10;96.50;;;;;;4074486;29;20108;-77
2024/02/29 09:26:25;;;;;;;40.65;22.33;;;4.20;96.30;;;;;;4071646;29;20056;-77
2024/02/29 09:28:29;;;;;;;41.72;22.55;;;4.20;96.30;;;;;;4071585;29;20115;-75
2024/02/29 09:30:30;;;;;;;42.83;22.63;;;4.30;96.10;;;;;;4071626;29;20197;-77
2024/02/29 09:32:34;;;;;;;78.57;23.02;;;4.40;96.10;;;;;;4071528;29;20055;-75
2024/02/29 09:34:37;;;;;;;42.40;22.48;;;4.50;95.70;;;;;;4084355;29;20099;-77
2024/02/29 09:36:39;;;;;;;40.03;21.65;;;4.60;95.60;;;;;;4086757;29;20044;-77
2024/02/29 09:38:41;;;;;;;45.92;22.55;;;4.60;95.60;;;;;;4080730;29;20395;-77
2024/02/29 09:40:42;;;;;;;44.88;24.75;;;4.70;95.50;;;;;;4072499;29;20048;-78
2024/02/29 09:42:45;;;;;;;42.25;23.33;;;4.90;95.50;;;;;;4071441;29;20100;-79
2024/02/29 09:44:49;;;;;;;42.75;22.15;;;4.90;95.40;;;;;;4079772;29;20054;-79
2024/02/29 09:46:51;;;;;;;38.42;22.50;;;5.00;95.20;;;;;;4059040;29;20437;-78
2024/02/29 09:48:55;;;;;;;37.78;20.85;;;5.00;95.30;;;;;;4053743;29;20487;-79
2024/02/29 09:51:00;;;;;;;42.80;24.25;;;5.20;95.30;;;;;;4053716;29;20104;-79
2024/02/29 09:53:02;;;;;;;43.43;25.00;;;5.30;95.20;;;;;;4053784;29;20052;-77
2024/02/29 09:55:06;;;;;;;42.88;24.20;;;5.40;95.40;;;;;;4053335;29;20534;-77
2024/02/29 09:57:10;;;;;;;51.28;25.92;;;5.50;95.00;;;;;;4053543;29;20063;-77
2024/02/29 09:59:17;;;;;;;43.25;24.35;;;5.50;94.80;;;;;;4064091;29;20454;-80
2024/02/29 10:01:19;;;;;;;41.92;23.02;;;5.50;94.90;;;;;;4069035;29;20075;-79
2024/02/29 10:03:21;;;;;;;44.00;24.23;;;5.50;94.90;;;;;;4072555;29;20139;-78
2024/02/29 10:05:24;;;;;;;47.05;27.23;;;5.60;94.90;;;;;;4084626;29;20103;-78
2024/02/29 10:07:25;;;;;;;49.55;25.65;;;5.60;94.80;;;;;;4084853;29;20279;-78
2024/02/29 10:09:30;;;;;;;45.72;23.52;;;5.60;94.70;;;;;;4084192;29;20063;-79
2024/02/29 10:11:32;;;;;;;42.75;22.58;;;5.60;94.70;;;;;;4084528;29;20476;-77
2024/02/29 10:13:37;;;;;;;52.65;26.48;;;5.70;94.80;;;;;;4071874;29;20474;-76
2024/02/29 10:15:39;;;;;;;129.50;52.25;;;5.80;95.00;;;;;;4068805;29;20119;-76
2024/02/29 10:17:41;;;;;;;59.10;27.38;;;5.80;94.70;;;;;;4068808;29;20139;-76
2024/02/29 10:19:44;;;;;;;49.88;26.15;;;5.80;94.60;;;;;;4068616;29;20044;-77
2024/02/29 10:21:46;;;;;;;46.90;23.83;;;5.90;94.50;;;;;;4068516;29;20052;-75
2024/02/29 10:23:48;;;;;;;44.22;23.52;;;5.90;94.50;;;;;;4072466;29;20059;-76
2024/02/29 10:25:51;;;;;;;43.35;24.15;;;6.00;94.30;;;;;;4073389;29;20482;-78
2024/02/29 10:28:03;;;;;;;43.63;23.42;;;6.00;94.20;;;;;;4070938;29;20056;-77
2024/02/29 10:30:09;;;;;;;40.88;22.52;;;6.00;94.10;;;;;;4068818;29;20144;-78
2024/02/29 10:32:11;;;;;;;65.90;34.45;;;6.00;94.20;;;;;;4068488;29;20098;-76
2024/02/29 10:34:15;;;;;;;97.82;47.45;;;6.10;94.40;;;;;;4068159;29;20044;-76
2024/02/29 10:36:19;;;;;;;78.35;35.72;;;6.20;94.60;;;;;;4066476;29;20119;-76
2024/02/29 10:38:23;;;;;;;58.58;28.02;;;6.30;94.30;;;;;;4068386;29;20107;-76
2024/02/29 10:40:25;;;;;;;65.30;32.90;;;6.40;94.20;;;;;;4068673;29;20537;-77
2024/02/29 10:42:26;;;;;;;47.50;24.30;;;6.50;94.20;;;;;;4068380;29;20071;-76
2024/02/29 10:44:33;;;;;;;47.75;24.45;;;6.50;94.00;;;;;;4068456;29;20087;-78
2024/02/29 10:46:37;;;;;;;44.45;24.40;;;6.60;93.80;;;;;;4067957;29;20052;-76
2024/02/29 10:48:49;;;;;;;47.10;24.13;;;6.60;93.70;;;;;;4074818;29;20119;-75
2024/02/29 10:51:06;;;;;;;43.65;23.45;;;6.70;93.60;;;;;;4084034;29;20138;-76
2024/02/29 10:53:18;;;;;;;43.63;23.17;;;6.70;93.40;;;;;;4081206;29;20386;-76
2024/02/29 10:55:27;;;;;;;43.95;23.63;;;6.80;93.10;;;;;;4068555;29;20429;-77
2024/02/29 10:57:40;;;;;;;44.97;23.75;;;6.90;93.10;;;;;;4068049;29;20055;-80
2024/02/29 10:59:47;;;;;;;41.20;22.10;;;6.90;92.90;;;;;;4068139;29;20055;-80
2024/02/29 11:01:49;;;;;;;41.63;21.88;;;7.00;93.00;;;;;;4067863;29;20522;-76
2024/02/29 11:03:51;;;;;;;45.25;22.50;;;7.10;93.30;;;;;;4068023;29;20052;-77
2024/02/29 11:05:53;;;;;;;41.33;21.88;;;7.20;92.80;;;;;;4068199;29;20115;-74
2024/02/29 11:07:55;;;;;;;41.85;21.27;;;7.30;92.70;;;;;;4068062;29;20052;-74
2024/02/29 11:09:56;;;;;;;38.17;20.52;;;7.40;93.20;;;;;;4067736;29;20052;-75
2024/02/29 11:12:11;;;;;;;39.47;21.02;;;7.50;92.90;;;;;;4067940;29;20048;-77
2024/02/29 11:14:15;;;;;;;37.38;20.05;;;7.60;92.80;;;;;;4068054;29;20056;-75
2024/02/29 11:16:19;;;;;;;42.60;22.38;;;7.70;92.90;;;;;;4067614;29;20514;-76
2024/02/29 11:18:22;;;;;;;50.40;25.38;;;7.80;92.50;;;;;;4067679;29;20083;-75
2024/02/29 11:20:25;;;;;;;46.00;23.95;;;7.90;92.60;;;;;;4067869;29;20120;-76
2024/02/29 11:22:34;;;;;;;45.03;24.83;;;8.00;92.20;;;;;;4067499;29;20075;-76
2024/02/29 11:24:35;;;;;;;42.25;23.33;;;8.10;92.00;;;;;;4067741;29;20052;-76
2024/02/29 11:26:38;;;;;;;56.45;29.30;;;8.30;91.50;;;;;;4067957;29;20833;-75
2024/02/29 11:28:42;;;;;;;50.90;28.70;;;8.40;91.30;;;;;;4067839;29;20079;-74
2024/02/29 11:30:50;;;;;;;41.67;23.48;;;8.50;91.30;;;;;;4067525;29;20059;-77
2024/02/29 11:32:52;;;;;;;36.88;20.10;;;8.60;90.60;;;;;;4067614;29;20475;-77
2024/02/29 11:34:55;;;;;;;36.88;20.60;;;8.60;89.90;;;;;;4067387;29;20122;-78
2024/02/29 11:36:58;;;;;;;36.72;20.80;;;8.70;89.50;;;;;;4070072;29;20448;-79
2024/02/29 11:39:00;;;;;;;39.25;21.65;;;8.70;89.30;;;;;;4073809;29;20048;-80
2024/02/29 11:41:01;;;;;;;39.60;21.67;;;8.80;89.80;;;;;;4067706;29;20052;-78
2024/02/29 11:43:07;;;;;;;36.60;20.42;;;8.90;88.40;;;;;;4067614;29;20173;-78
2024/02/29 11:45:21;;;;;;;40.42;21.20;;;9.00;87.80;;;;;;4067670;29;20115;-80
2024/02/29 11:47:23;;;;;;;34.78;19.92;;;9.10;88.30;;;;;;4067326;29;20542;-80
2024/02/29 11:49:26;;;;;;;34.90;19.85;;;9.20;87.30;;;;;;4067249;29;20103;-80
2024/02/29 11:51:28;;;;;;;50.58;27.23;;;9.30;86.50;;;;;;4067742;29;20110;-78
2024/02/29 11:53:31;;;;;;;114.65;46.40;;;9.30;86.70;;;;;;4067623;29;20139;-80
2024/02/29 11:55:32;;;;;;;175.00;63.10;;;9.50;86.60;;;;;;4067172;29;20364;-79
2024/02/29 11:57:33;;;;;;;96.68;42.67;;;9.60;86.20;;;;;;4066965;29;20454;-78
2024/02/29 11:59:38;;;;;;;58.47;28.25;;;9.70;84.90;;;;;;4067038;29;20052;-80
2024/02/29 12:01:44;;;;;;;35.08;19.52;;;9.80;84.20;;;;;;4067029;29;20088;-76
2024/02/29 12:03:45;;;;;;;33.95;18.52;;;9.90;84.00;;;;;;4067799;29;20055;-77
2024/02/29 12:05:47;;;;;;;30.95;17.65;;;9.90;82.90;;;;;;4067174;29;20131;-76
2024/02/29 12:07:49;;;;;;;30.00;17.08;;;10.10;82.70;;;;;;4067658;29;20044;-77
2024/02/29 12:09:51;;;;;;;29.85;17.23;;;10.20;82.70;;;;;;4066961;29;20136;-77
2024/02/29 12:11:53;;;;;;;36.55;19.88;;;10.30;82.90;;;;;;4067043;29;20055;-77
2024/02/29 12:13:55;;;;;;;64.72;31.95;;;10.50;82.40;;;;;;4067100;29;20424;-77
2024/02/29 12:15:59;;;;;;;46.88;25.98;;;10.60;80.80;;;;;;4066877;29;20056;-77
2024/02/29 12:18:02;;;;;;;27.77;15.50;;;10.80;79.90;;;;;;4066976;29;20052;-77
2024/02/29 12:20:06;;;;;;;25.67;14.60;;;10.80;78.20;;;;;;4067079;29;20052;-77
2024/02/29 12:22:13;;;;;;;23.23;13.45;;;11.00;77.90;;;;;;4067218;29;20061;-79
2024/02/29 12:24:16;;;;;;;23.98;13.13;;;11.00;75.40;;;;;;4067035;29;20055;-79
2024/02/29 12:26:18;;;;;;;20.67;11.40;;;11.10;75.90;;;;;;4066911;29;20048;-77
2024/02/29 12:28:19;;;;;;;19.83;11.90;;;11.30;74.70;;;;;;4066720;29;20541;-78
2024/02/29 12:30:21;;;;;;;19.10;11.45;;;11.50;74.00;;;;;;4071640;29;20055;-79
2024/02/29 12:32:23;;;;;;;26.17;18.00;;;11.60;73.40;;;;;;4082351;29;20091;-77
2024/02/29 12:34:27;;;;;;;22.98;12.60;;;11.70;72.60;;;;;;4082346;29;20118;-78
2024/02/29 12:36:29;;;;;;;21.67;12.35;;;11.80;71.30;;;;;;4080451;29;20494;-78
2024/02/29 12:38:32;;;;;;;20.08;12.55;;;11.70;70.80;;;;;;4082591;29;20107;-78
2024/02/29 12:40:34;;;;;;;22.65;13.48;;;11.70;72.30;;;;;;4082584;29;20461;-79
2024/02/29 12:42:36;;;;;;;23.75;13.75;;;12.00;72.10;;;;;;4082396;29;20051;-79
2024/02/29 12:44:38;;;;;;;24.40;13.68;;;12.20;71.20;;;;;;4082467;29;20063;-79
2024/02/29 12:46:40;;;;;;;25.45;14.02;;;12.40;70.10;;;;;;4082612;29;20130;-80
2024/02/29 12:48:42;;;;;;;20.02;12.10;;;12.50;70.20;;;;;;4082511;29;20052;-79
2024/02/29 12:50:44;;;;;;;21.98;13.45;;;12.70;69.00;;;;;;4081743;29;20107;-79
2024/02/29 12:52:48;;;;;;;19.88;11.73;;;12.80;68.10;;;;;;4082582;29;20051;-78
2024/02/29 12:54:50;;;;;;;21.45;12.93;;;13.00;68.80;;;;;;4082308;29;20083;-78
2024/02/29 12:56:52;;;;;;;22.52;14.10;;;13.30;67.90;;;;;;4082204;29;20107;-78
2024/02/29 12:58:53;;;;;;;29.48;16.90;;;13.40;66.40;;;;;;4073260;29;20112;-79
2024/02/29 13:00:55;;;;;;;31.42;17.48;;;13.70;67.30;;;;;;4066702;29;20107;-78
2024/02/29 13:02:57;;;;;;;40.50;22.90;;;13.90;65.70;;;;;;4070252;29;20476;-78
2024/02/29 13:04:59;;;;;;;48.78;25.00;;;14.00;66.70;;;;;;4066665;29;20482;-79
2024/02/29 13:07:01;;;;;;;32.75;17.98;;;14.20;65.90;;;;;;4066375;29;20055;-78
2024/02/29 13:09:04;;;;;;;89.07;52.25;;;14.40;63.80;;;;;;4066652;29;20088;-79
2024/02/29 13:11:06;;;;;;;39.58;20.45;;;14.50;63.90;;;;;;4066440;29;20119;-78
2024/02/29 13:13:08;;;;;;;28.30;14.45;;;14.80;62.80;;;;;;4066439;29;20100;-77
2024/02/29 13:15:11;;;;;;;31.13;17.92;;;15.00;61.50;;;;;;4066599;29;20060;-78
2024/02/29 13:17:12;;;;;;;73.53;33.97;;;15.30;60.50;;;;;;4066569;29;20060;-77
2024/02/29 13:19:15;;;;;;;30.42;16.63;;;15.40;59.40;;;;;;4066923;29;20052;-78
2024/02/29 13:21:16;;;;;;;36.17;19.27;;;15.60;59.20;;;;;;4066892;29;20055;-77
2024/02/29 13:23:20;;;;;;;23.05;13.57;;;15.80;58.10;;;;;;4077397;29;20477;-78
2024/02/29 13:25:21;;;;;;;21.50;13.23;;;16.00;58.50;;;;;;4078181;29;20056;-78
2024/02/29 13:27:23;;;;;;;21.23;13.18;;;16.30;58.00;;;;;;4078196;29;20401;-78
2024/02/29 13:29:25;;;;;;;23.20;14.07;;;16.60;56.80;;;;;;4077992;29;20051;-77
2024/02/29 13:31:26;;;;;;;20.75;13.10;;;16.70;56.00;;;;;;4082124;29;20047;-78
2024/02/29 13:33:28;;;;;;;23.25;13.18;;;16.90;56.30;;;;;;4071235;29;20116;-77
2024/02/29 13:35:29;;;;;;;21.25;13.57;;;17.10;55.10;;;;;;4066198;29;20052;-77
2024/02/29 13:37:30;;;;;;;21.45;13.13;;;17.30;54.30;;;;;;4068446;29;20047;-78
2024/02/29 13:39:33;;;;;;;21.45;13.75;;;17.60;53.40;;;;;;4073946;29;20361;-78
2024/02/29 13:41:35;;;;;;;21.10;13.65;;;17.80;53.00;;;;;;4066495;29;20079;-78
2024/02/29 13:43:37;;;;;;;25.80;15.52;;;18.20;52.90;;;;;;4066508;29;20147;-78
2024/02/29 13:45:39;;;;;;;25.42;15.55;;;18.60;50.30;;;;;;4066252;29;20063;-80
2024/02/29 13:47:47;;;;;;;26.25;13.73;;;20.10;48.50;;;;;;4066025;29;20049;-79
2024/02/29 13:49:49;;;;;;;32.83;17.48;;;23.60;43.60;;;;;;4066249;29;20052;-80
2024/02/29 13:51:53;;;;;;;24.65;16.15;;;25.70;36.90;;;;;;4066212;29;20482;-78
2024/02/29 13:53:55;;;;;;;27.25;17.88;;;27.00;33.20;;;;;;4066120;29;20467;-78
2024/02/29 13:55:58;;;;;;;22.70;15.25;;;27.90;31.00;;;;;;4076765;29;20048;-78
2024/02/29 13:58:00;;;;;;;20.73;14.27;;;28.60;30.00;;;;;;4066486;29;20107;-77
2024/02/29 14:00:01;;;;;;;23.75;15.88;;;29.20;29.30;;;;;;4065966;29;20119;-78
2024/02/29 14:02:03;;;;;;;18.60;13.80;;;29.90;28.40;;;;;;4066669;29;20064;-78
2024/02/29 14:04:05;;;;;;;19.77;14.02;;;30.80;27.20;;;;;;4069127;29;20139;-78
2024/02/29 14:06:07;;;;;;;23.73;16.33;;;31.20;26.60;;;;;;4075206;29;20060;-78
2024/02/29 14:08:09;;;;;;;21.55;14.52;;;31.90;25.90;;;;;;4084729;29;20063;-79
2024/02/29 14:10:10;;;;;;;31.70;20.13;;;32.20;25.20;;;;;;4084426;29;20135;-78
2024/02/29 14:12:14;;;;;;;25.85;17.77;;;32.30;25.40;;;;;;4079810;29;20497;-77
2024/02/29 14:14:15;;;;;;;28.85;19.88;;;32.60;24.50;;;;;;4068966;29;20052;-77
2024/02/29 14:16:17;;;;;;;23.60;17.15;;;32.70;24.70;;;;;;4068598;29;20052;-76
2024/02/29 14:18:19;;;;;;;21.35;16.23;;;33.00;23.90;;;;;;4068737;29;20056;-78
2024/02/29 14:20:21;;;;;;;22.60;15.90;;;33.70;23.70;;;;;;4068943;29;20044;-77
2024/02/29 14:22:23;;;;;;;19.35;15.45;;;34.00;23.00;;;;;;4068445;29;20566;-78
2024/02/29 14:24:24;;;;;;;19.70;15.23;;;34.00;22.50;;;;;;4068813;29;20108;-76
2024/02/29 14:26:26;;;;;;;21.95;16.83;;;34.10;22.70;;;;;;4068823;29;20103;-79
2024/02/29 14:28:29;;;;;;;20.33;16.25;;;34.30;22.50;;;;;;4069367;29;20067;-79
2024/02/29 14:30:31;;;;;;;21.27;15.95;;;33.80;22.00;;;;;;4071176;29;20059;-74
2024/02/29 14:32:34;;;;;;;23.30;16.95;;;33.60;23.30;;;;;;4068812;29;20108;-77
2024/02/29 14:34:35;;;;;;;21.25;16.48;;;33.50;22.90;;;;;;4077968;29;20047;-78
2024/02/29 14:36:37;;;;;;;22.45;17.15;;;34.20;22.70;;;;;;4082349;29;20107;-76
2024/02/29 14:38:39;;;;;;;26.17;17.27;;;34.10;22.40;;;;;;4084336;29;20055;-78
2024/02/29 14:40:41;;;;;;;22.40;16.15;;;33.10;22.90;;;;;;4084358;29;20056;-77
2024/02/29 14:42:43;;;;;;;21.02;16.10;;;33.60;23.10;;;;;;4084345;29;20063;-78
2024/02/29 14:44:46;;;;;;;17.98;15.32;;;33.40;22.40;;;;;;4083916;29;20051;-79
2024/02/29 14:46:50;;;;;;;19.70;15.43;;;33.70;22.40;;;;;;4075392;29;20123;-80
2024/02/29 14:48:52;;;;;;;21.95;17.88;;;33.10;22.40;;;;;;4068550;29;20111;-78
2024/02/29 14:50:54;;;;;;;19.90;16.20;;;32.90;22.40;;;;;;4068426;29;20048;-77
2024/02/29 14:52:56;;;;;;;20.70;15.60;;;32.70;23.40;;;;;;4068552;29;20100;-77
2024/02/29 14:54:58;;;;;;;19.83;15.35;;;33.00;22.80;;;;;;4068492;29;20052;-79
2024/02/29 14:57:00;;;;;;;20.70;15.05;;;33.10;23.00;;;;;;4068201;29;20498;-79
2024/02/29 14:59:03;;;;;;;18.63;14.35;;;33.60;22.70;;;;;;4067999;29;20056;-77
2024/02/29 15:01:07;;;;;;;19.27;13.95;;;33.90;22.20;;;;;;4074685;29;20059;-78
2024/02/29 15:03:07;;;;;;;19.45;14.57;;;33.80;22.10;;;;;;4070060;29;20083;-78
2024/02/29 15:05:10;;;;;;;18.85;14.35;;;33.60;22.70;;;;;;4074563;29;20051;-79
2024/02/29 15:07:12;;;;;;;19.85;14.50;;;32.80;22.40;;;;;;4079831;29;20561;-79
2024/02/29 15:09:14;;;;;;;20.73;14.70;;;32.50;22.30;;;;;;4069115;29;20116;-85
2024/02/29 15:11:16;;;;;;;19.70;14.15;;;32.40;22.50;;;;;;4068326;29;20142;-80
2024/02/29 15:13:18;;;;;;;18.75;15.02;;;32.50;22.50;;;;;;4067538;29;20103;-81
2024/02/29 15:15:20;;;;;;;18.50;14.02;;;32.50;22.50;;;;;;4068443;29;20088;-83
2024/02/29 15:17:23;;;;;;;19.85;15.10;;;32.30;23.00;;;;;;4069138;29;20475;-84
2024/02/29 15:19:25;;;;;;;18.15;14.75;;;32.10;23.10;;;;;;4070651;29;20056;-82
2024/02/29 15:21:28;;;;;;;19.13;15.35;;;32.00;23.10;;;;;;4068328;29;20056;-84
2024/02/29 15:23:30;;;;;;;20.63;15.07;;;31.30;23.40;;;;;;4068115;29;20237;-84
2024/02/29 15:25:32;;;;;;;20.65;15.18;;;31.00;23.90;;;;;;4069249;29;20080;-82
2024/02/29 15:27:38;;;;;;;20.58;15.88;;;30.80;24.10;;;;;;4052787;29;20071;-79
2024/02/29 15:29:40;;;;;;;21.45;15.98;;;30.60;24.10;;;;;;4054193;29;20052;-79
2024/02/29 15:31:44;;;;;;;22.85;16.85;;;29.90;24.50;;;;;;4067707;29;20095;-78
2024/02/29 15:33:47;;;;;;;22.02;15.65;;;29.60;24.90;;;;;;4067724;29;20048;-77
2024/02/29 15:35:50;;;;;;;22.17;16.80;;;29.50;25.00;;;;;;4068215;29;20486;-79
2024/02/29 15:37:52;;;;;;;23.65;17.25;;;29.10;25.50;;;;;;4067828;29;20056;-78
2024/02/29 15:39:53;;;;;;;24.67;17.20;;;28.90;26.00;;;;;;4080577;29;20122;-78
2024/02/29 15:41:55;;;;;;;25.70;17.75;;;28.40;26.40;;;;;;4074726;29;20052;-79
2024/02/29 15:43:57;;;;;;;27.63;18.55;;;27.90;27.00;;;;;;4069973;29;20055;-81
2024/02/29 15:45:59;;;;;;;22.52;17.58;;;27.40;27.50;;;;;;4070475;29;20508;-79
2024/02/29 15:48:01;;;;;;;24.92;18.00;;;27.10;28.00;;;;;;4067835;29;20052;-79
2024/02/29 15:50:07;;;;;;;24.65;18.77;;;26.70;28.50;;;;;;4067649;29;20099;-77
2024/02/29 15:52:09;;;;;;;23.65;18.23;;;26.30;29.00;;;;;;4067139;29;20048;-78
2024/02/29 15:54:11;;;;;;;25.35;17.75;;;26.00;29.50;;;;;;4068117;29;20060;-81
2024/02/29 15:56:14;;;;;;;25.70;17.83;;;25.50;29.90;;;;;;4067403;29;20048;-79
2024/02/29 15:58:16;;;;;;;28.35;18.98;;;25.10;30.50;;;;;;4067085;29;20139;-77
2024/02/29 16:00:22;;;;;;;26.70;19.25;;;24.70;31.40;;;;;;4067296;29;20060;-79
2024/02/29 16:02:24;;;;;;;27.67;19.33;;;24.30;32.10;;;;;;4067407;29;20054;-77
2024/02/29 16:04:28;;;;;;;29.35;19.48;;;23.80;33.10;;;;;;4067523;29;20096;-79
2024/02/29 16:06:32;;;;;;;28.00;18.77;;;23.30;34.00;;;;;;4067389;29;20060;-79
2024/02/29 16:08:33;;;;;;;32.13;21.70;;;22.70;35.10;;;;;;4067294;29;20099;-79
2024/02/29 16:10:35;;;;;;;32.63;22.00;;;22.30;35.80;;;;;;4066920;29;20052;-78
2024/02/29 16:12:36;;;;;;;32.55;21.13;;;22.00;36.90;;;;;;4067120;29;20048;-81
2024/02/29 16:14:40;;;;;;;33.20;24.05;;;21.60;37.70;;;;;;4067055;29;20060;-79
2024/02/29 16:16:42;;;;;;;28.33;19.90;;;21.20;38.40;;;;;;4067002;29;20095;-78
2024/02/29 16:18:44;;;;;;;29.58;20.75;;;20.80;39.30;;;;;;4067246;29;20111;-77
2024/02/29 16:20:46;;;;;;;30.52;20.58;;;20.40;40.20;;;;;;4067172;29;20048;-79
2024/02/29 16:22:49;;;;;;;28.45;20.58;;;20.20;41.00;;;;;;4066982;29;20122;-80
2024/02/29 16:24:51;;;;;;;32.45;19.77;;;19.90;41.30;;;;;;4067106;29;20080;-78
2024/02/29 16:26:53;;;;;;;29.60;19.88;;;19.70;42.00;;;;;;4066926;29;20052;-79